createdAt,value
2023-02-19T00:00:48.029Z,11.38
2023-02-19T00:03:59.103Z,11.27
2023-02-19T00:07:01.344Z,11.27
2023-02-19T00:10:03.992Z,11.25
2023-02-19T00:13:06.218Z,11.17
2023-02-19T00:16:14.383Z,11.20
2023-02-19T00:19:19.368Z,11.11
2023-02-19T00:22:21.830Z,11.11
2023-02-19T00:25:24.057Z,11.14
2023-02-19T00:28:26.479Z,11.14
2023-02-19T00:31:32.529Z,11.09
2023-02-19T00:34:36.124Z,10.96
2023-02-19T00:37:38.349Z,10.93
2023-02-19T00:40:40.834Z,10.91
2023-02-19T00:43:43.054Z,10.89
2023-02-19T00:46:47.686Z,10.95
2023-02-19T00:49:49.893Z,10.91
2023-02-19T00:52:52.378Z,10.93
2023-02-19T00:55:54.580Z,10.93
2023-02-19T00:58:57.317Z,10.99
2023-02-19T01:01:59.615Z,11.02
2023-02-19T01:05:02.191Z,11.02
2023-02-19T01:08:04.483Z,11.01
2023-02-19T01:11:08.731Z,11.05
2023-02-19T01:14:11.288Z,11.07
2023-02-19T01:17:13.957Z,11.09
2023-02-19T01:20:16.499Z,11.13
2023-02-19T01:23:18.988Z,11.12
2023-02-19T01:26:25.303Z,11.19
2023-02-19T01:29:27.926Z,11.21
2023-02-19T01:32:30.171Z,11.15
2023-02-19T01:35:33.078Z,11.12
2023-02-19T01:38:35.277Z,11.18
2023-02-19T01:41:40.700Z,11.11
2023-02-19T01:44:42.840Z,10.99
2023-02-19T01:47:47.060Z,10.99
2023-02-19T01:50:54.419Z,10.93
2023-02-19T01:54:01.156Z,10.89
2023-02-19T01:57:08.116Z,10.68
2023-02-19T02:00:14.193Z,10.52
2023-02-19T02:03:17.015Z,10.41
2023-02-19T02:06:26.027Z,10.42
2023-02-19T02:09:49.520Z,10.54
2023-02-19T02:12:57.468Z,10.56
2023-02-19T02:16:22.120Z,10.56
2023-02-19T02:19:30.367Z,10.56
2023-02-19T02:22:49.672Z,10.72
2023-02-19T02:25:59.921Z,10.74
2023-02-19T02:29:20.931Z,10.70
2023-02-19T02:32:33.402Z,10.76
2023-02-19T02:35:48.758Z,10.79
2023-02-19T02:38:54.096Z,10.84
2023-02-19T02:42:18.723Z,10.89
2023-02-19T02:45:35.907Z,10.85
2023-02-19T02:48:41.261Z,10.80
2023-02-19T02:51:49.828Z,10.81
2023-02-19T02:55:04.379Z,10.73
2023-02-19T02:58:07.960Z,10.82
2023-02-19T03:01:43.883Z,10.83
2023-02-19T03:05:23.889Z,10.77
2023-02-19T03:08:36.984Z,10.61
2023-02-19T03:12:02.292Z,10.51
2023-02-19T03:15:28.191Z,10.57
2023-02-19T03:18:51.853Z,10.51
2023-02-19T03:22:24.864Z,10.49
2023-02-19T03:25:49.980Z,10.47
2023-02-19T03:29:12.774Z,10.40
2023-02-19T03:32:23.896Z,10.28
2023-02-19T03:35:30.559Z,10.24
2023-02-19T03:38:42.335Z,10.15
2023-02-19T03:41:57.915Z,10.07
2023-02-19T03:45:35.194Z,10.08
2023-02-19T03:49:18.550Z,10.13
2023-02-19T03:52:37.987Z,9.96
2023-02-19T03:56:14.166Z,9.86
2023-02-19T03:59:28.521Z,9.88
2023-02-19T04:02:44.426Z,9.88
2023-02-19T04:05:53.394Z,10.11
2023-02-19T04:09:00.433Z,10.28
2023-02-19T04:12:06.172Z,10.21
2023-02-19T04:15:14.636Z,10.09
2023-02-19T04:18:22.755Z,10.09
2023-02-19T04:21:26.642Z,10.17
2023-02-19T04:24:37.741Z,10.15
2023-02-19T04:27:41.235Z,10.14
2023-02-19T04:30:44.241Z,10.26
2023-02-19T04:33:46.885Z,10.17
2023-02-19T04:36:49.435Z,10.06
2023-02-19T04:39:51.560Z,10.22
2023-02-19T04:42:54.054Z,10.01
2023-02-19T04:46:00.347Z,10.00
2023-02-19T04:49:03.114Z,9.91
2023-02-19T04:52:05.300Z,9.92
2023-02-19T04:55:08.684Z,9.90
2023-02-19T04:58:10.837Z,10.01
2023-02-19T05:01:14.640Z,9.87
2023-02-19T05:04:16.960Z,9.70
2023-02-19T05:07:19.321Z,9.59
2023-02-19T05:10:21.545Z,9.47
2023-02-19T05:13:24.114Z,9.33
2023-02-19T05:16:26.388Z,9.25
2023-02-19T05:19:28.873Z,9.24
2023-02-19T05:22:31.009Z,9.31
2023-02-19T05:25:33.486Z,9.29
2023-02-19T05:28:36.040Z,9.28
2023-02-19T05:31:38.633Z,9.39
2023-02-19T05:34:40.888Z,9.47
2023-02-19T05:37:43.348Z,9.56
2023-02-19T05:40:46.505Z,9.53
2023-02-19T05:43:49.206Z,9.46
2023-02-19T05:46:51.410Z,9.39
2023-02-19T05:49:53.884Z,9.28
2023-02-19T05:52:56.065Z,9.17
2023-02-19T05:55:59.019Z,9.17
2023-02-19T05:59:04.984Z,9.14
2023-02-19T06:02:07.527Z,9.09
2023-02-19T06:05:10.817Z,9.07
2023-02-19T06:08:14.127Z,9.04
2023-02-19T06:11:17.108Z,9.11
2023-02-19T06:14:19.280Z,9.03
2023-02-19T06:17:21.723Z,9.00
2023-02-19T06:20:26.031Z,8.98
2023-02-19T06:23:29.827Z,8.96
2023-02-19T06:26:31.998Z,8.88
2023-02-19T06:29:34.756Z,8.92
2023-02-19T06:32:37.049Z,8.85
2023-02-19T06:35:39.510Z,8.75
2023-02-19T06:38:42.104Z,8.70
2023-02-19T06:41:44.587Z,8.72
2023-02-19T06:44:46.785Z,8.66
2023-02-19T06:47:49.304Z,8.62
2023-02-19T06:50:51.491Z,8.67
2023-02-19T06:53:54.025Z,8.60
2023-02-19T06:56:58.919Z,8.65
2023-02-19T07:00:01.400Z,8.70
2023-02-19T07:03:05.473Z,8.56
2023-02-19T07:06:08.580Z,8.61
2023-02-19T07:09:11.248Z,8.54
2023-02-19T07:12:13.796Z,8.45
2023-02-19T07:15:15.935Z,8.37
2023-02-19T07:18:19.288Z,8.45
2023-02-19T07:21:21.463Z,8.32
2023-02-19T07:24:23.938Z,8.35
2023-02-19T07:27:26.084Z,8.51
2023-02-19T07:30:28.592Z,8.60
2023-02-19T07:33:30.974Z,8.58
2023-02-19T07:36:33.441Z,8.75
2023-02-19T07:39:35.657Z,8.68
2023-02-19T07:42:38.151Z,8.72
2023-02-19T07:45:41.150Z,8.56
2023-02-19T07:48:44.480Z,8.53
2023-02-19T07:51:46.683Z,8.72
2023-02-19T07:54:49.240Z,8.71
2023-02-19T07:57:51.403Z,8.71
2023-02-19T08:00:53.938Z,8.70
2023-02-19T08:03:56.461Z,8.70
2023-02-19T08:06:58.660Z,8.72
2023-02-19T08:10:20.354Z,8.71
2023-02-19T08:13:23.504Z,8.58
2023-02-19T08:16:41.945Z,8.56
2023-02-19T08:19:44.942Z,8.44
2023-02-19T08:22:47.424Z,8.23
2023-02-19T08:25:51.448Z,8.22
2023-02-19T08:28:53.929Z,8.21
2023-02-19T08:31:56.137Z,8.19
2023-02-19T08:34:58.593Z,8.22
2023-02-19T08:38:00.736Z,8.41
2023-02-19T08:41:08.868Z,8.58
2023-02-19T08:44:11.338Z,8.78
2023-02-19T08:47:13.849Z,9.05
2023-02-19T08:50:16.056Z,9.36
2023-02-19T08:53:18.737Z,9.44
2023-02-19T08:56:21.002Z,9.38
2023-02-19T08:59:23.787Z,9.37
2023-02-19T09:02:26.063Z,9.57
2023-02-19T09:05:28.591Z,9.68
2023-02-19T09:08:30.852Z,9.89
2023-02-19T09:11:33.320Z,9.95
2023-02-19T09:14:36.501Z,9.89
2023-02-19T09:17:39.172Z,9.65
2023-02-19T09:20:41.398Z,9.64
2023-02-19T09:23:43.895Z,9.40
2023-02-19T09:26:49.709Z,9.31
2023-02-19T09:29:52.166Z,9.21
2023-02-19T09:32:54.389Z,9.33
2023-02-19T09:36:00.401Z,9.41
2023-02-19T09:39:04.506Z,9.45
2023-02-19T09:42:20.845Z,9.38
2023-02-19T09:45:25.974Z,9.33
2023-02-19T09:48:28.918Z,9.46
2023-02-19T09:51:34.757Z,9.65
2023-02-19T09:54:38.645Z,10.07
2023-02-19T09:57:41.778Z,10.11
2023-02-19T10:00:48.976Z,10.40
2023-02-19T10:03:51.524Z,10.50
2023-02-19T10:06:58.955Z,10.45
2023-02-19T10:10:21.326Z,10.75
2023-02-19T10:13:30.357Z,11.69
2023-02-19T10:16:33.759Z,12.96
2023-02-19T10:19:36.588Z,13.79
2023-02-19T10:22:39.136Z,14.94
2023-02-19T10:25:49.153Z,15.31
2023-02-19T10:28:51.609Z,16.38
2023-02-19T10:32:13.381Z,15.93
2023-02-19T10:35:16.349Z,16.38
2023-02-19T10:38:23.683Z,16.60
2023-02-19T10:41:27.947Z,16.61
2023-02-19T10:44:39.162Z,15.80
2023-02-19T10:47:46.631Z,15.43
2023-02-19T10:50:55.961Z,15.94
2023-02-19T10:54:19.412Z,15.82
2023-02-19T10:57:29.843Z,15.75
2023-02-19T11:00:32.381Z,16.16
2023-02-19T11:03:34.565Z,16.14
2023-02-19T11:06:37.100Z,16.09
2023-02-19T11:09:42.659Z,16.13
2023-02-19T11:12:49.007Z,16.67
2023-02-19T11:15:54.275Z,16.65
2023-02-19T11:18:57.310Z,16.75
2023-02-19T11:22:01.186Z,17.44
2023-02-19T11:25:15.202Z,17.79
2023-02-19T11:28:18.176Z,18.65
2023-02-19T11:31:20.671Z,17.80
2023-02-19T11:34:30.071Z,18.30
2023-02-19T11:37:33.084Z,18.33
2023-02-19T11:40:41.499Z,18.74
2023-02-19T11:44:08.726Z,19.08
2023-02-19T11:47:46.417Z,19.55
2023-02-19T11:51:04.488Z,19.56
2023-02-19T11:54:29.800Z,19.54
2023-02-19T11:57:37.925Z,19.70
2023-02-19T12:00:51.993Z,19.34
2023-02-19T12:04:32.291Z,18.76
2023-02-19T12:07:57.374Z,18.92
2023-02-19T12:11:21.330Z,19.35
2023-02-19T12:14:42.166Z,18.94
2023-02-19T12:18:06.499Z,18.83
2023-02-19T12:21:27.194Z,19.30
2023-02-19T12:24:51.603Z,19.17
2023-02-19T12:28:25.598Z,19.11
2023-02-19T12:31:55.881Z,20.01
2023-02-19T12:35:32.206Z,20.08
2023-02-19T12:38:49.288Z,19.86
2023-02-19T12:42:08.250Z,19.16
2023-02-19T12:45:25.110Z,19.20
2023-02-19T12:48:42.997Z,19.24
2023-02-19T12:51:49.605Z,19.43
2023-02-19T12:54:55.962Z,18.62
2023-02-19T12:58:04.417Z,18.94
2023-02-19T13:01:11.126Z,19.12
2023-02-19T13:04:29.886Z,15.27
2023-02-19T13:07:52.954Z,12.30
2023-02-19T13:11:01.227Z,11.28
2023-02-19T13:14:30.948Z,10.77
2023-02-19T13:17:50.685Z,10.47
2023-02-19T13:20:55.323Z,10.63
2023-02-19T13:24:03.031Z,10.93
2023-02-19T13:27:24.067Z,11.57
2023-02-19T13:30:34.579Z,12.21
2023-02-19T13:33:36.720Z,13.20
2023-02-19T13:36:39.844Z,14.30
2023-02-19T13:40:05.056Z,15.49
2023-02-19T13:43:24.680Z,15.85
2023-02-19T13:46:37.193Z,16.21
2023-02-19T13:49:42.125Z,14.85
2023-02-19T13:52:44.522Z,14.24
2023-02-19T13:55:51.967Z,13.70
2023-02-19T13:59:35.628Z,12.42
2023-02-19T14:02:38.178Z,12.07
2023-02-19T14:06:10.968Z,10.80
2023-02-19T14:09:37.916Z,9.80
2023-02-19T14:12:40.428Z,9.41
2023-02-19T14:15:49.040Z,9.22
2023-02-19T14:18:52.775Z,9.21
2023-02-19T14:21:55.208Z,9.18
2023-02-19T14:24:58.597Z,9.26
2023-02-19T14:28:06.605Z,9.21
2023-02-19T14:31:11.932Z,9.18
2023-02-19T14:34:22.493Z,9.23
2023-02-19T14:37:25.773Z,9.27
2023-02-19T14:40:36.457Z,9.63
2023-02-19T14:43:40.173Z,9.93
2023-02-19T14:47:00.633Z,10.22
2023-02-19T14:50:13.286Z,10.30
2023-02-19T14:53:16.743Z,10.49
2023-02-19T14:56:23.939Z,10.64
2023-02-19T14:59:30.526Z,10.65
2023-02-19T15:02:33.057Z,10.59
2023-02-19T15:05:37.341Z,10.41
2023-02-19T15:08:45.127Z,10.41
2023-02-19T15:11:48.167Z,10.34
2023-02-19T15:14:53.083Z,10.15
2023-02-19T15:17:56.908Z,9.91
2023-02-19T15:21:05.685Z,9.89
2023-02-19T15:24:08.099Z,9.94
2023-02-19T15:27:24.121Z,9.89
2023-02-19T15:30:29.529Z,9.84
2023-02-19T15:33:32.289Z,9.88
2023-02-19T15:36:35.279Z,9.85
2023-02-19T15:39:47.160Z,9.83
2023-02-19T15:42:49.627Z,9.80
2023-02-19T15:45:56.843Z,9.83
2023-02-19T15:49:12.466Z,9.85
2023-02-19T15:52:32.652Z,9.79
2023-02-19T15:55:45.704Z,9.76
2023-02-19T15:58:55.894Z,9.70
2023-02-19T16:02:00.746Z,9.67
2023-02-19T16:05:12.398Z,9.69
2023-02-19T16:08:17.661Z,9.66
2023-02-19T16:11:23.274Z,9.67
2023-02-19T16:14:31.722Z,9.84
2023-02-19T16:17:34.455Z,9.72
2023-02-19T16:20:36.763Z,9.77
2023-02-19T16:23:48.306Z,9.79
2023-02-19T16:26:50.964Z,9.77
2023-02-19T16:29:54.080Z,9.78
2023-02-19T16:33:31.953Z,9.79
2023-02-19T16:36:41.517Z,9.73
2023-02-19T16:39:43.988Z,9.80
2023-02-19T16:42:49.750Z,9.75
2023-02-19T16:45:52.004Z,9.72
2023-02-19T16:48:54.616Z,9.66
2023-02-19T16:51:59.582Z,9.32
2023-02-19T16:55:03.751Z,9.12
2023-02-19T16:58:06.019Z,8.89
2023-02-19T17:01:08.660Z,8.74
2023-02-19T17:04:12.640Z,8.64
2023-02-19T17:07:17.115Z,8.60
2023-02-19T17:10:24.661Z,8.68
2023-02-19T17:13:27.199Z,8.65
2023-02-19T17:16:34.276Z,8.71
2023-02-19T17:19:37.000Z,8.69
2023-02-19T17:22:39.241Z,8.69
2023-02-19T17:25:42.231Z,8.62
2023-02-19T17:28:44.440Z,8.54
2023-02-19T17:31:47.118Z,8.60
2023-02-19T17:34:49.739Z,8.62
2023-02-19T17:37:53.544Z,8.63
2023-02-19T17:40:55.777Z,8.64
2023-02-19T17:43:58.303Z,8.49
2023-02-19T17:47:01.725Z,8.51
2023-02-19T17:50:04.760Z,8.48
2023-02-19T17:53:07.009Z,8.49
2023-02-19T17:56:11.588Z,8.49
2023-02-19T17:59:14.805Z,8.40
2023-02-19T18:02:18.242Z,8.45
2023-02-19T18:05:21.550Z,8.65
2023-02-19T18:08:23.733Z,8.67
2023-02-19T18:11:26.213Z,8.57
2023-02-19T18:14:28.360Z,8.56
2023-02-19T18:17:30.988Z,8.52
2023-02-19T18:20:33.228Z,8.55
2023-02-19T18:23:36.207Z,8.56
2023-02-19T18:26:38.386Z,8.41
2023-02-19T18:29:41.028Z,8.32
2023-02-19T18:32:43.570Z,8.41
2023-02-19T18:35:49.182Z,8.27
2023-02-19T18:38:51.451Z,8.19
2023-02-19T18:41:54.037Z,8.19
2023-02-19T18:44:56.397Z,8.27
2023-02-19T18:47:58.902Z,8.35
2023-02-19T18:51:01.489Z,8.42
2023-02-19T18:54:04.882Z,8.39
2023-02-19T18:57:08.698Z,8.10
2023-02-19T19:00:17.392Z,8.04
2023-02-19T19:03:19.926Z,8.09
2023-02-19T19:06:22.486Z,8.21
2023-02-19T19:09:24.786Z,8.21
2023-02-19T19:12:27.256Z,8.26
2023-02-19T19:15:29.636Z,8.24
2023-02-19T19:18:32.264Z,8.38
2023-02-19T19:21:34.616Z,8.33
2023-02-19T19:24:37.197Z,8.19
2023-02-19T19:27:39.486Z,8.14
2023-02-19T19:30:42.196Z,8.17
2023-02-19T19:33:46.728Z,8.21
2023-02-19T19:36:49.349Z,8.18
2023-02-19T19:39:51.783Z,8.08
2023-02-19T19:42:54.398Z,8.00
2023-02-19T19:45:57.091Z,7.87
2023-02-19T19:48:59.993Z,7.82
2023-02-19T19:52:02.286Z,7.82
2023-02-19T19:55:06.051Z,7.70
2023-02-19T19:58:08.330Z,7.66
2023-02-19T20:01:11.398Z,7.62
2023-02-19T20:04:14.091Z,7.60
2023-02-19T20:07:16.474Z,7.53
2023-02-19T20:10:19.975Z,7.45
2023-02-19T20:13:26.394Z,7.46
2023-02-19T20:16:28.977Z,7.47
2023-02-19T20:19:31.296Z,7.47
2023-02-19T20:22:36.346Z,7.54
2023-02-19T20:25:38.685Z,7.54
2023-02-19T20:28:45.145Z,7.46
2023-02-19T20:31:51.812Z,7.52
2023-02-19T20:34:54.407Z,7.49
2023-02-19T20:37:56.807Z,7.50
2023-02-19T20:40:59.627Z,7.41
2023-02-19T20:44:02.152Z,7.38
2023-02-19T20:47:04.939Z,7.29
2023-02-19T20:50:07.788Z,7.22
2023-02-19T20:53:10.772Z,7.16
2023-02-19T20:56:13.449Z,7.09
2023-02-19T20:59:17.518Z,7.08
2023-02-19T21:02:24.746Z,6.97
2023-02-19T21:05:27.408Z,7.05
2023-02-19T21:08:29.935Z,6.89
2023-02-19T21:11:32.868Z,6.73
2023-02-19T21:14:35.152Z,6.70
2023-02-19T21:17:37.790Z,6.63
2023-02-19T21:20:40.186Z,6.51
2023-02-19T21:23:42.765Z,6.41
2023-02-19T21:26:45.128Z,6.36
2023-02-19T21:29:48.008Z,6.20
2023-02-19T21:32:50.272Z,6.07
2023-02-19T21:35:52.879Z,5.87
2023-02-19T21:38:55.118Z,5.83
2023-02-19T21:41:58.690Z,5.69
2023-02-19T21:45:00.869Z,5.56
2023-02-19T21:48:03.477Z,5.52
2023-02-19T21:51:05.953Z,5.42
2023-02-19T21:54:13.181Z,5.32
2023-02-19T21:57:15.446Z,5.29
2023-02-19T22:00:18.241Z,5.23
2023-02-19T22:03:20.863Z,5.20
2023-02-19T22:06:26.473Z,5.17
2023-02-19T22:09:30.377Z,5.16
2023-02-19T22:12:32.567Z,5.09
2023-02-19T22:15:35.098Z,5.02
2023-02-19T22:18:37.236Z,5.02
2023-02-19T22:21:44.014Z,4.96
2023-02-19T22:24:46.210Z,4.89
2023-02-19T22:27:49.061Z,4.82
2023-02-19T22:30:51.266Z,4.80
2023-02-19T22:33:55.719Z,4.73
2023-02-19T22:36:58.076Z,4.67
2023-02-19T22:40:00.914Z,4.58
2023-02-19T22:43:03.752Z,4.54
2023-02-19T22:46:19.160Z,4.50
2023-02-19T22:49:22.536Z,4.40
2023-02-19T22:52:28.206Z,4.37
2023-02-19T22:55:31.080Z,4.41
2023-02-19T22:58:33.608Z,4.29
2023-02-19T23:01:35.865Z,4.27
2023-02-19T23:04:38.453Z,4.17
2023-02-19T23:07:45.264Z,4.24
2023-02-19T23:10:47.795Z,4.31
2023-02-19T23:13:50.145Z,4.24
2023-02-19T23:16:52.676Z,4.27
2023-02-19T23:19:54.889Z,4.29
2023-02-19T23:22:57.720Z,4.27
2023-02-19T23:25:59.975Z,4.35
2023-02-19T23:29:03.325Z,4.32
2023-02-19T23:32:05.616Z,4.27
2023-02-19T23:35:08.255Z,4.29
2023-02-19T23:38:10.544Z,4.24
2023-02-19T23:41:16.070Z,4.30
2023-02-19T23:44:19.290Z,4.20
2023-02-19T23:47:22.483Z,4.25
2023-02-19T23:50:24.794Z,4.17
2023-02-19T23:53:27.372Z,4.13
2023-02-19T23:56:29.805Z,4.17
2023-02-19T23:59:32.479Z,4.11
